Terminal Aerodrome Forecast
Issued by NWS

Home | Current Version | Previous Version | Text Only | Print | Product List | Glossary On
Versions: 1 2 3 4 5 6 7 8 9 10 11 12 13 14 15 16 17
471
FTUS45 KFGZ 192335
TAFGCN
TAF
KGCN 192335Z 2000/2024 20030G43KT P6SM BKN080
     FM200130 25017G27KT P6SM BKN050
     FM200500 23010G15KT P6SM BKN035
     FM201700 33013G22KT P6SM BKN050 PROB30 2017/2023 5SM -SHRASN
      OVC035=

USA.gov is the U.S. government's official web portal to all federal, state and local government web resources and services.